Time;durP1;ratioP1;P1;durP2;ratioP2;P2;SDS_P1;SDS_P2;PMS_P1;PMS_P2;Temp;Humidity;BMP_temperature;BMP_pressure;BME280_temperature;BME280_humidity;BME280_pressure;Samples;Min_cycle;Max_cycle;Signal;HPM_P1;HPM_P2
2022/01/22 00:02:08;;;;;;;13.07;5.27;;;;;2.40;97157.00;;;;8414094;28;20248;-70
2022/01/22 00:06:14;;;;;;;8.47;3.67;;;;;2.40;97157.00;;;;8406159;28;20224;-69
2022/01/22 00:10:19;;;;;;;13.03;4.37;;;;;2.30;97153.00;;;;8417601;28;20252;-70
2022/01/22 00:14:25;;;;;;;8.17;4.73;;;;;2.30;97144.00;;;;8416860;28;20218;-70
2022/01/22 00:18:28;;;;;;;11.53;5.27;;;;;2.40;97156.00;;;;8414292;28;20264;-69
2022/01/22 00:22:34;;;;;;;10.67;4.97;;;;;2.40;97152.00;;;;8417275;28;20285;-69
2022/01/22 00:26:37;;;;;;;11.77;5.67;;;;;2.40;97147.00;;;;8413184;28;20275;-71
2022/01/22 00:30:41;;;;;;;6.53;3.37;;;;;2.40;97135.00;;;;8416436;28;20232;-70
2022/01/22 00:34:44;;;;;;;11.00;5.33;;;;;2.30;97147.00;;;;8415406;28;20630;-70
2022/01/22 00:38:49;;;;;;;7.57;4.30;;;;;2.30;97134.00;;;;8417412;28;20237;-71
2022/01/22 00:42:52;;;;;;;9.57;4.70;;;;;2.30;97129.00;;;;8409818;28;20287;-71
2022/01/22 00:46:55;;;;;;;11.37;5.00;;;;;2.40;97127.00;;;;8414201;28;20291;-72
2022/01/22 00:50:59;;;;;;;5.43;3.50;;;;;2.40;97126.00;;;;8419247;28;20291;-73
2022/01/22 00:55:04;;;;;;;9.27;4.53;;;;;2.40;97129.00;;;;8402286;28;20740;-72
2022/01/22 00:59:07;;;;;;;8.33;3.80;;;;;2.40;97131.00;;;;8407276;28;20230;-71
2022/01/22 01:03:11;;;;;;;8.40;4.60;;;;;2.50;97122.00;;;;8403853;28;20509;-71
2022/01/22 01:07:14;;;;;;;7.27;3.50;;;;;2.50;97130.00;;;;8403801;28;20316;-70
2022/01/22 01:11:18;;;;;;;11.37;4.27;;;;;2.50;97134.00;;;;8417078;28;20738;-69
2022/01/22 01:15:37;;;;;;;3.00;2.33;;;;;2.50;97129.00;;;;8407563;28;20946;-70
2022/01/22 01:32:53;;;;;;;3.47;1.70;;;;;2.60;97106.00;;;;8412237;28;20914;-70
2022/01/22 01:36:56;;;;;;;6.13;3.37;;;;;2.60;97105.00;;;;8411789;28;20771;-71
2022/01/22 01:41:07;;;;;;;3.90;2.70;;;;;2.60;97105.00;;;;8412060;28;20622;-72
2022/01/22 01:45:12;;;;;;;6.90;3.70;;;;;2.60;97098.00;;;;8417468;28;20278;-71
2022/01/22 01:49:16;;;;;;;5.27;3.37;;;;;2.70;97099.00;;;;8413222;28;20220;-72
2022/01/22 01:53:29;;;;;;;6.47;3.33;;;;;2.70;97092.00;;;;8420633;28;20225;-72
2022/01/22 01:57:38;;;;;;;7.17;3.67;;;;;2.70;97094.00;;;;8416315;28;20235;-73
2022/01/22 02:01:43;;;;;;;5.63;3.80;;;;;2.60;97094.00;;;;8411922;28;20266;-73
2022/01/22 02:05:46;;;;;;;7.93;4.13;;;;;2.70;97087.00;;;;8406246;28;20316;-72
2022/01/22 02:09:49;;;;;;;3.03;2.17;;;;;2.70;97091.00;;;;8392325;28;20244;-72
2022/01/22 02:14:05;;;;;;;3.13;2.70;;;;;2.70;97083.00;;;;8423700;28;20226;-71
2022/01/22 02:26:50;;;;;;;4.80;3.00;;;;;2.70;97078.00;;;;8414057;28;20251;-70
2022/01/22 02:31:00;;;;;;;4.90;3.07;;;;;2.70;97079.00;;;;8419440;28;20915;-69
2022/01/22 02:35:09;;;;;;;3.80;2.97;;;;;2.70;97091.00;;;;8411689;28;23659;-71
2022/01/22 02:39:17;;;;;;;4.33;3.20;;;;;2.70;97073.00;;;;8425100;28;20265;-70
2022/01/22 02:43:21;;;;;;;2.27;2.03;;;;;2.80;97084.00;;;;8417217;28;20222;-70
2022/01/22 02:47:24;;;;;;;2.23;2.03;;;;;2.80;97075.00;;;;8421807;28;20232;-69
2022/01/22 02:51:28;;;;;;;3.90;2.90;;;;;2.70;97074.00;;;;8419918;28;20234;-69
2022/01/22 02:55:33;;;;;;;5.10;3.33;;;;;2.80;97069.00;;;;8422675;28;20224;-70
2022/01/22 02:59:36;;;;;;;4.00;2.30;;;;;2.80;97078.00;;;;8418288;28;20233;-69
2022/01/22 03:03:39;;;;;;;2.50;2.23;;;;;2.80;97082.00;;;;8428439;22;20831;-70
2022/01/22 03:07:44;;;;;;;3.70;2.70;;;;;2.80;97074.00;;;;8414327;28;20309;-70
2022/01/22 03:12:12;;;;;;;4.87;2.90;;;;;2.70;97077.00;;;;8419488;28;20225;-69
2022/01/22 03:16:29;;;;;;;3.20;2.53;;;;;2.70;97072.00;;;;8425345;28;20229;-70
2022/01/22 03:29:18;;;;;;;7.83;3.67;;;;;2.70;97072.00;;;;8416248;28;20222;-71
2022/01/22 03:33:23;;;;;;;5.20;2.83;;;;;2.70;97084.00;;;;8414192;28;20219;-70
2022/01/22 03:37:30;;;;;;;3.33;2.47;;;;;2.70;97079.00;;;;8410223;28;20283;-71
2022/01/22 03:41:33;;;;;;;2.43;2.23;;;;;2.70;97065.00;;;;8402811;28;20240;-72
2022/01/22 03:45:38;;;;;;;5.90;3.10;;;;;2.70;97062.00;;;;8428189;28;20560;-71
2022/01/22 03:49:41;;;;;;;5.83;3.27;;;;;2.70;97062.00;;;;8421433;28;20237;-71
2022/01/22 03:53:44;;;;;;;12.00;4.23;;;;;2.70;97068.00;;;;8421546;28;20291;-69
2022/01/22 03:57:47;;;;;;;6.97;3.63;;;;;2.70;97079.00;;;;8414394;28;20286;-70
2022/01/22 04:10:39;;;;;;;5.43;3.00;;;;;2.70;97071.00;;;;8393153;28;20272;-70
2022/01/22 04:14:48;;;;;;;9.53;4.27;;;;;2.70;97079.00;;;;8406014;28;20319;-70
2022/01/22 04:27:33;;;;;;;6.17;3.50;;;;;2.80;97076.00;;;;8411570;28;20316;-70
2022/01/22 04:31:36;;;;;;;3.60;2.63;;;;;2.80;97061.00;;;;8406904;28;20233;-70
2022/01/22 04:35:41;;;;;;;4.90;2.93;;;;;2.80;97066.00;;;;8406743;28;20226;-69
2022/01/22 04:39:51;;;;;;;3.73;2.83;;;;;2.80;97061.00;;;;8409242;28;20225;-68
2022/01/22 04:43:58;;;;;;;3.83;2.80;;;;;2.90;97050.00;;;;8407896;28;20230;-68
2022/01/22 04:48:23;;;;;;;6.60;4.17;;;;;2.90;97052.00;;;;8400063;28;20313;-68
2022/01/22 04:52:38;;;;;;;7.80;4.50;;;;;2.90;97061.00;;;;8403619;28;20667;-68
2022/01/22 04:56:41;;;;;;;3.53;2.80;;;;;2.90;97052.00;;;;8404037;28;20225;-68
2022/01/22 05:00:46;;;;;;;4.80;2.80;;;;;3.00;97054.00;;;;8369086;28;1126518;-68
2022/01/22 05:04:49;;;;;;;6.77;4.10;;;;;2.90;97046.00;;;;8401099;28;20273;-67
2022/01/22 05:08:53;;;;;;;6.23;3.20;;;;;3.00;97041.00;;;;8405816;28;20630;-68
2022/01/22 05:12:56;;;;;;;7.70;4.13;;;;;3.00;97043.00;;;;8381786;28;20289;-68
2022/01/22 05:17:01;;;;;;;8.00;4.57;;;;;3.00;97048.00;;;;8399832;28;20218;-68
2022/01/22 05:21:10;;;;;;;9.37;4.30;;;;;3.00;97034.00;;;;8405920;28;20230;-68
2022/01/22 05:25:19;;;;;;;10.73;4.10;;;;;3.00;97056.00;;;;8405670;28;20267;-67
2022/01/22 05:29:57;;;;;;;7.80;3.50;;;;;3.00;97058.00;;;;8407211;28;20280;-67
2022/01/22 05:38:16;;;;;;;14.03;5.40;;;;;3.00;97077.00;;;;8406655;28;20226;-67
2022/01/22 05:42:23;;;;;;;4.90;3.43;;;;;3.10;97068.00;;;;8408788;28;20710;-66
2022/01/22 05:46:29;;;;;;;10.17;4.73;;;;;3.10;97073.00;;;;8407787;28;20230;-67
2022/01/22 05:50:35;;;;;;;6.80;3.80;;;;;3.10;97059.00;;;;8407603;28;20637;-67
2022/01/22 06:03:26;;;;;;;10.43;4.23;;;;;3.10;97092.00;;;;8366651;28;20234;-67
2022/01/22 06:07:29;;;;;;;12.53;4.57;;;;;3.10;97091.00;;;;8375015;28;20299;-68
2022/01/22 06:11:40;;;;;;;9.53;4.27;;;;;3.10;97107.00;;;;8394649;28;20269;-69
2022/01/22 06:15:45;;;;;;;13.63;5.73;;;;;3.10;97104.00;;;;8401071;28;20267;-70
2022/01/22 06:19:47;;;;;;;9.47;4.93;;;;;3.10;97117.00;;;;8379945;28;20231;-70
2022/01/22 06:23:51;;;;;;;6.57;3.43;;;;;3.10;97112.00;;;;8409861;28;20238;-70
2022/01/22 06:27:54;;;;;;;6.33;3.20;;;;;3.20;97094.00;;;;8414733;28;20707;-70
2022/01/22 06:31:58;;;;;;;14.50;5.67;;;;;3.20;97108.00;;;;8417358;28;20241;-69
2022/01/22 06:36:02;;;;;;;10.03;4.43;;;;;3.20;97109.00;;;;8409523;28;20226;-69
2022/01/22 06:44:31;;;;;;;12.27;4.40;;;;;3.20;97130.00;;;;8412755;28;20249;-69
2022/01/22 06:48:36;;;;;;;10.57;4.87;;;;;3.30;97144.00;;;;8403098;28;20222;-69
2022/01/22 06:52:40;;;;;;;12.37;5.27;;;;;3.30;97149.00;;;;8408803;28;20226;-69
2022/01/22 06:56:43;;;;;;;18.30;4.93;;;;;3.30;97146.00;;;;8397728;28;20301;-69
2022/01/22 07:00:46;;;;;;;10.90;5.40;;;;;3.30;97158.00;;;;8387383;28;20631;-68
2022/01/22 07:04:51;;;;;;;19.73;6.00;;;;;3.40;97155.00;;;;8413035;28;20245;-70
2022/01/22 07:08:54;;;;;;;9.30;5.00;;;;;3.40;97170.00;;;;8405059;28;20281;-70
2022/01/22 07:12:57;;;;;;;13.77;5.03;;;;;3.40;97167.00;;;;8413798;28;20227;-70
2022/01/22 07:17:00;;;;;;;16.07;6.20;;;;;3.40;97180.00;;;;8403495;28;20214;-72
2022/01/22 07:21:16;;;;;;;10.83;4.30;;;;;3.40;97189.00;;;;8413006;28;20571;-72
2022/01/22 07:25:22;;;;;;;14.10;5.23;;;;;3.50;97202.00;;;;8412378;28;20252;-71
2022/01/22 07:29:25;;;;;;;18.03;6.23;;;;;3.50;97184.00;;;;8413680;28;20256;-73
2022/01/22 07:33:28;;;;;;;16.73;5.87;;;;;3.50;97201.00;;;;8408116;28;20255;-69
2022/01/22 07:37:35;;;;;;;11.40;4.73;;;;;3.50;97185.00;;;;8420164;28;20221;-68
2022/01/22 07:41:38;;;;;;;10.57;4.50;;;;;3.50;97212.00;;;;8413281;28;20816;-69
2022/01/22 07:45:41;;;;;;;10.30;4.60;;;;;3.50;97204.00;;;;8413563;28;20732;-69
2022/01/22 07:49:45;;;;;;;9.23;4.33;;;;;3.50;97217.00;;;;8416641;28;20216;-68
2022/01/22 07:53:49;;;;;;;12.40;4.77;;;;;3.50;97230.00;;;;8396318;28;20312;-68
2022/01/22 07:57:52;;;;;;;10.70;4.73;;;;;3.50;97234.00;;;;8405894;28;20230;-71
2022/01/22 08:01:55;;;;;;;16.23;5.40;;;;;3.50;97239.00;;;;8413247;28;20287;-72
2022/01/22 08:05:58;;;;;;;12.87;4.93;;;;;3.50;97235.00;;;;8410969;28;20226;-72
2022/01/22 08:10:08;;;;;;;13.93;5.70;;;;;3.50;97242.00;;;;8415443;28;20289;-72
2022/01/22 08:14:11;;;;;;;11.33;4.27;;;;;3.50;97233.00;;;;8412863;28;20230;-71
2022/01/22 08:18:14;;;;;;;13.90;4.10;;;;;3.60;97234.00;;;;8411815;28;20248;-72
2022/01/22 08:22:24;;;;;;;10.33;4.70;;;;;3.60;97253.00;;;;8401955;28;20226;-72
2022/01/22 08:26:40;;;;;;;11.67;4.43;;;;;3.60;97244.00;;;;8388536;28;20315;-71
2022/01/22 08:30:45;;;;;;;15.83;5.27;;;;;3.60;97261.00;;;;8408438;28;20222;-72
2022/01/22 08:39:09;;;;;;;12.37;5.63;;;;;3.70;97271.00;;;;8400923;28;20225;-72
2022/01/22 08:43:14;;;;;;;38.20;17.60;;;;;3.70;97266.00;;;;8411961;28;20325;-71
2022/01/22 08:47:17;;;;;;;57.27;23.17;;;;;3.80;97283.00;;;;8411317;28;20238;-72
2022/01/22 08:51:20;;;;;;;63.37;28.67;;;;;3.80;97277.00;;;;8406376;28;20227;-74
2022/01/22 08:55:24;;;;;;;16.93;8.10;;;;;3.90;97283.00;;;;8421662;28;20262;-75
2022/01/22 08:59:28;;;;;;;14.97;6.47;;;;;3.90;97298.00;;;;8418068;28;20328;-75
2022/01/22 09:03:31;;;;;;;14.67;6.17;;;;;4.00;97305.00;;;;8409145;28;20682;-72
2022/01/22 09:07:35;;;;;;;11.73;5.73;;;;;4.00;97314.00;;;;8408815;28;20277;-74
2022/01/22 09:11:38;;;;;;;13.23;5.00;;;;;4.00;97324.00;;;;8377574;28;20232;-73
2022/01/22 09:15:43;;;;;;;9.20;4.53;;;;;4.00;97327.00;;;;8410104;28;20282;-72
2022/01/22 09:19:47;;;;;;;11.27;3.70;;;;;4.10;97333.00;;;;8406293;28;20355;-75
2022/01/22 09:23:50;;;;;;;43.27;24.63;;;;;4.10;97343.00;;;;8407315;28;20284;-73
2022/01/22 09:27:53;;;;;;;9.67;5.80;;;;;4.20;97347.00;;;;8412874;28;20284;-72
2022/01/22 09:31:57;;;;;;;9.93;4.40;;;;;4.10;97353.00;;;;8413016;28;20230;-73
2022/01/22 09:36:00;;;;;;;13.93;6.20;;;;;4.20;97358.00;;;;8403392;28;20333;-73
2022/01/22 09:40:03;;;;;;;7.73;4.30;;;;;4.30;97364.00;;;;8404680;28;20231;-73
2022/01/22 09:44:07;;;;;;;13.10;5.43;;;;;4.30;97363.00;;;;8410800;28;20242;-74
2022/01/22 09:48:11;;;;;;;14.33;5.07;;;;;4.40;97357.00;;;;8412812;28;20305;-73
2022/01/22 09:52:14;;;;;;;12.53;4.63;;;;;4.40;97371.00;;;;8411011;28;20230;-73
2022/01/22 09:56:20;;;;;;;6.93;3.43;;;;;4.50;97372.00;;;;8398438;28;20225;-71
2022/01/22 10:00:25;;;;;;;10.00;4.40;;;;;4.50;97383.00;;;;8394548;28;20278;-71
2022/01/22 10:04:37;;;;;;;10.93;4.77;;;;;4.50;97391.00;;;;8398204;28;20252;-71
2022/01/22 10:08:40;;;;;;;11.83;4.60;;;;;4.40;97387.00;;;;8393667;28;20235;-71
2022/01/22 10:12:45;;;;;;;10.67;3.87;;;;;4.40;97391.00;;;;8399605;28;20633;-71
2022/01/22 10:16:51;;;;;;;14.90;5.33;;;;;4.40;97390.00;;;;8378946;28;20228;-71
2022/01/22 10:20:55;;;;;;;9.97;4.07;;;;;4.60;97377.00;;;;8400853;28;20282;-70
2022/01/22 10:24:59;;;;;;;14.23;5.60;;;;;4.80;97376.00;;;;8408784;28;20375;-70
2022/01/22 10:29:10;;;;;;;11.43;4.73;;;;;4.90;97368.00;;;;8402007;28;20226;-71
2022/01/22 10:33:29;;;;;;;10.77;5.13;;;;;4.90;97375.00;;;;8400366;28;20230;-73
2022/01/22 10:37:33;;;;;;;12.20;5.40;;;;;4.80;97368.00;;;;8398691;28;20235;-74
2022/01/22 10:41:41;;;;;;;13.33;5.17;;;;;4.80;97370.00;;;;8398999;28;22211;-73
2022/01/22 10:46:19;;;;;;;12.67;5.40;;;;;4.70;97367.00;;;;8406237;28;20239;-73
2022/01/22 10:50:24;;;;;;;10.20;5.17;;;;;4.70;97368.00;;;;8382050;28;20346;-73
2022/01/22 10:54:30;;;;;;;13.47;5.33;;;;;4.70;97372.00;;;;8401266;28;20553;-74
2022/01/22 10:58:52;;;;;;;14.60;5.67;;;;;4.60;97373.00;;;;8373043;28;20674;-73
2022/01/22 11:02:55;;;;;;;14.40;5.27;;;;;4.60;97374.00;;;;8399795;28;20750;-75
2022/01/22 11:07:00;;;;;;;15.67;5.13;;;;;4.60;97381.00;;;;8408322;28;20353;-75
2022/01/22 11:11:25;;;;;;;16.50;5.10;;;;;4.60;97387.00;;;;8412313;28;20236;-74
2022/01/22 11:15:28;;;;;;;10.10;4.33;;;;;4.50;97388.00;;;;8399869;28;20222;-75
2022/01/22 11:19:33;;;;;;;8.57;4.43;;;;;4.50;97383.00;;;;8396206;28;20230;-73
2022/01/22 11:23:36;;;;;;;11.17;4.40;;;;;4.40;97378.00;;;;8396653;28;20300;-73
2022/01/22 11:27:45;;;;;;;8.90;4.00;;;;;4.40;97378.00;;;;8397847;28;21051;-72
2022/01/22 11:31:49;;;;;;;18.07;5.83;;;;;4.50;97389.00;;;;8406942;28;20230;-74
2022/01/22 11:36:16;;;;;;;18.10;6.30;;;;;4.50;97385.00;;;;8405687;28;20685;-75
2022/01/22 11:40:20;;;;;;;16.00;5.90;;;;;4.50;97394.00;;;;8380143;28;20734;-76
2022/01/22 11:44:34;;;;;;;18.07;6.33;;;;;4.50;97386.00;;;;8405274;28;20265;-79
2022/01/22 11:48:37;;;;;;;15.83;5.83;;;;;4.50;97389.00;;;;8405023;28;20230;-75
2022/01/22 11:52:44;;;;;;;18.93;6.43;;;;;4.60;97392.00;;;;8405776;28;20240;-75
2022/01/22 11:56:50;;;;;;;14.73;5.77;;;;;4.60;97385.00;;;;8416123;28;20279;-75
2022/01/22 12:00:54;;;;;;;15.23;5.53;;;;;4.60;97390.00;;;;8393658;28;20285;-75
2022/01/22 12:05:07;;;;;;;17.40;5.37;;;;;4.60;97382.00;;;;8405353;28;20241;-75
2022/01/22 12:09:13;;;;;;;21.53;6.47;;;;;4.60;97388.00;;;;8405456;28;20219;-75
2022/01/22 12:18:07;;;;;;;23.03;6.97;;;;;4.80;97385.00;;;;8403850;28;20231;-75
2022/01/22 12:22:31;;;;;;;20.23;6.43;;;;;4.70;97396.00;;;;8397317;28;20305;-75
2022/01/22 12:26:47;;;;;;;20.33;6.10;;;;;4.70;97388.00;;;;8401204;28;20296;-75
2022/01/22 12:30:51;;;;;;;14.37;5.80;;;;;4.70;97390.00;;;;8396856;28;20905;-77
2022/01/22 12:35:08;;;;;;;12.43;5.33;;;;;4.60;97389.00;;;;8399452;28;20835;-73
2022/01/22 12:39:17;;;;;;;19.50;6.90;;;;;4.60;97394.00;;;;8393133;28;20242;-72
2022/01/22 12:43:28;;;;;;;19.97;6.80;;;;;4.50;97401.00;;;;8369017;28;20228;-74
2022/01/22 12:47:31;;;;;;;20.03;7.43;;;;;4.50;97390.00;;;;8368766;28;20327;-74
2022/01/22 12:51:36;;;;;;;17.53;5.97;;;;;4.60;97395.00;;;;8393406;28;20226;-74
2022/01/22 13:00:09;;;;;;;17.33;5.97;;;;;4.60;97395.00;;;;8396051;28;20227;-75
2022/01/22 13:04:16;;;;;;;16.80;5.97;;;;;4.70;97403.00;;;;8390208;28;20250;-76
2022/01/22 13:08:28;;;;;;;22.33;7.03;;;;;4.60;97401.00;;;;8404011;28;20235;-74
2022/01/22 13:12:31;;;;;;;11.97;4.53;;;;;4.70;97401.00;;;;8406066;28;20225;-70
2022/01/22 13:16:46;;;;;;;14.97;6.13;;;;;4.60;97396.00;;;;8405006;28;20261;-70
2022/01/22 13:20:49;;;;;;;19.23;6.73;;;;;4.70;97405.00;;;;8403722;28;20286;-71
2022/01/22 13:25:04;;;;;;;18.70;6.40;;;;;4.70;97407.00;;;;8401950;28;20234;-72
2022/01/22 13:29:16;;;;;;;19.37;6.77;;;;;4.70;97399.00;;;;8405886;28;20272;-72
2022/01/22 13:33:23;;;;;;;16.80;6.93;;;;;4.70;97398.00;;;;8401045;28;20219;-70
2022/01/22 13:51:26;;;;;;;25.40;6.63;;;;;4.60;97416.00;;;;8375757;28;20240;-73
2022/01/22 13:55:30;;;;;;;17.00;6.87;;;;;4.60;97419.00;;;;8372873;28;20224;-71
2022/01/22 13:59:36;;;;;;;26.97;10.10;;;;;4.60;97415.00;;;;8359138;28;20905;-72
2022/01/22 14:03:44;;;;;;;19.10;6.73;;;;;4.60;97414.00;;;;8323276;28;20264;-72
2022/01/22 14:07:59;;;;;;;19.53;6.33;;;;;4.60;97408.00;;;;8336309;28;20737;-72
2022/01/22 14:12:05;;;;;;;13.57;5.07;;;;;4.60;97408.00;;;;8334645;28;20952;-72
2022/01/22 14:16:16;;;;;;;18.00;6.47;;;;;4.50;97406.00;;;;8327509;28;20308;-70
2022/01/22 14:20:24;;;;;;;23.13;6.90;;;;;4.50;97400.00;;;;8319580;28;20312;-70
2022/01/22 14:24:30;;;;;;;17.63;5.40;;;;;4.40;97409.00;;;;8318593;28;20222;-72
2022/01/22 14:28:43;;;;;;;17.50;5.93;;;;;4.40;97411.00;;;;8345598;28;20895;-76
2022/01/22 14:32:57;;;;;;;17.07;5.67;;;;;4.40;97428.00;;;;8364559;28;20245;-75
2022/01/22 14:37:01;;;;;;;18.47;5.90;;;;;4.50;97416.00;;;;8367597;28;20907;-73
2022/01/22 14:45:56;;;;;;;14.07;5.03;;;;;4.30;97427.00;;;;8341225;28;20933;-70
2022/01/22 14:50:06;;;;;;;16.07;5.80;;;;;4.30;97425.00;;;;8363900;28;20235;-70
2022/01/22 14:54:09;;;;;;;20.27;6.20;;;;;4.30;97420.00;;;;8346025;28;20279;-76
2022/01/22 14:58:12;;;;;;;20.33;6.23;;;;;4.30;97425.00;;;;8348260;28;20224;-73
2022/01/22 15:02:16;;;;;;;12.80;4.97;;;;;4.30;97434.00;;;;8348102;28;20293;-74
2022/01/22 15:06:20;;;;;;;15.77;4.97;;;;;4.30;97428.00;;;;8346159;28;20242;-73
2022/01/22 15:10:25;;;;;;;16.63;5.60;;;;;4.20;97430.00;;;;8348250;28;20278;-71
2022/01/22 15:14:28;;;;;;;12.70;5.53;;;;;4.20;97428.00;;;;8339179;28;20313;-74
2022/01/22 15:18:50;;;;;;;13.20;4.47;;;;;4.20;97436.00;;;;8332153;28;20594;-74
2022/01/22 15:22:56;;;;;;;12.73;4.67;;;;;4.20;97439.00;;;;8336854;28;20236;-72
2022/01/22 15:26:58;;;;;;;12.43;4.87;;;;;4.20;97442.00;;;;8338771;28;20752;-72
2022/01/22 15:31:02;;;;;;;13.53;5.10;;;;;4.20;97437.00;;;;8338530;28;20254;-72
2022/01/22 15:35:07;;;;;;;19.80;5.47;;;;;4.20;97445.00;;;;8340382;28;20499;-72
2022/01/22 15:39:12;;;;;;;18.07;5.53;;;;;4.10;97449.00;;;;8340995;28;20306;-70
2022/01/22 15:43:16;;;;;;;10.67;4.60;;;;;4.10;97458.00;;;;8336815;28;20235;-69
2022/01/22 15:47:19;;;;;;;16.77;5.37;;;;;4.10;97461.00;;;;8331015;28;20228;-70
2022/01/22 15:51:22;;;;;;;16.67;5.73;;;;;4.10;97461.00;;;;8330493;28;21171;-73
2022/01/22 15:55:26;;;;;;;14.70;5.30;;;;;4.10;97457.00;;;;8348117;28;20232;-72
2022/01/22 15:59:29;;;;;;;15.73;4.97;;;;;4.10;97464.00;;;;8341400;28;20258;-72
2022/01/22 16:03:34;;;;;;;16.17;5.33;;;;;4.10;97475.00;;;;8333731;28;20281;-73
2022/01/22 16:07:37;;;;;;;15.60;5.73;;;;;4.10;97462.00;;;;8341626;28;20275;-76
2022/01/22 16:12:06;;;;;;;20.20;6.03;;;;;4.10;97474.00;;;;8342188;28;20242;-69
2022/01/22 16:16:22;;;;;;;13.07;4.50;;;;;4.10;97470.00;;;;8342255;28;20231;-72
2022/01/22 16:20:26;;;;;;;14.17;5.30;;;;;4.10;97478.00;;;;8337927;28;20270;-72
2022/01/22 16:24:30;;;;;;;11.00;4.83;;;;;4.10;97470.00;;;;8311303;28;20282;-73
2022/01/22 16:28:35;;;;;;;11.40;4.60;;;;;4.00;97480.00;;;;8310820;28;20637;-72
2022/01/22 16:32:38;;;;;;;17.67;5.83;;;;;4.10;97483.00;;;;8300956;28;20224;-71
2022/01/22 16:36:41;;;;;;;20.20;8.73;;;;;4.10;97482.00;;;;8299113;28;20714;-74
2022/01/22 16:40:44;;;;;;;30.73;12.37;;;;;4.10;97490.00;;;;8300896;28;20614;-71
2022/01/22 16:45:05;;;;;;;16.33;6.10;;;;;4.10;97488.00;;;;8303483;28;20229;-74
2022/01/22 16:58:02;;;;;;;14.50;5.40;;;;;4.20;97503.00;;;;8298904;28;20230;-73
2022/01/22 17:02:07;;;;;;;33.43;11.03;;;;;4.20;97498.00;;;;8339493;28;20289;-75
2022/01/22 17:06:11;;;;;;;39.73;13.97;;;;;4.20;97515.00;;;;8337754;28;20231;-70
2022/01/22 17:10:20;;;;;;;35.83;11.43;;;;;4.20;97512.00;;;;8341324;28;20899;-72
2022/01/22 17:14:23;;;;;;;30.80;9.23;;;;;4.30;97516.00;;;;8362645;28;20222;-70
2022/01/22 17:18:31;;;;;;;79.80;30.87;;;;;4.30;97522.00;;;;8380707;28;20231;-73
2022/01/22 17:22:34;;;;;;;44.57;14.17;;;;;4.30;97519.00;;;;8367160;28;20231;-75
2022/01/22 17:26:38;;;;;;;41.03;10.10;;;;;4.30;97526.00;;;;8387081;28;20250;-71
2022/01/22 17:30:43;;;;;;;51.70;14.90;;;;;4.30;97537.00;;;;8382661;28;20227;-70
2022/01/22 17:34:48;;;;;;;51.97;12.50;;;;;4.40;97532.00;;;;8369172;28;20265;-70
2022/01/22 17:38:57;;;;;;;41.33;11.77;;;;;4.40;97536.00;;;;8375623;28;20277;-71
2022/01/22 17:43:01;;;;;;;50.40;12.63;;;;;4.40;97542.00;;;;8371433;28;20761;-73
2022/01/22 17:47:07;;;;;;;46.67;12.40;;;;;4.40;97539.00;;;;8358000;28;20669;-74
2022/01/22 17:51:12;;;;;;;40.40;10.83;;;;;4.40;97548.00;;;;8372902;28;20231;-72
2022/01/22 17:55:16;;;;;;;42.43;10.40;;;;;4.40;97544.00;;;;8369311;28;20282;-73
2022/01/22 17:59:20;;;;;;;52.70;11.73;;;;;4.40;97542.00;;;;8364051;28;20257;-73
2022/01/22 18:03:26;;;;;;;53.17;12.83;;;;;4.40;97540.00;;;;8369106;28;20281;-72
2022/01/22 18:07:31;;;;;;;50.43;13.17;;;;;4.40;97548.00;;;;8365483;28;20795;-70
2022/01/22 18:17:05;;;;;;;60.20;13.90;;;;;4.40;97548.00;;;;8378771;28;20257;-69
2022/01/22 18:21:42;;;;;;;65.57;14.67;;;;;4.40;97552.00;;;;8385479;28;20230;-69
2022/01/22 18:26:20;;;;;;;57.90;13.67;;;;;4.40;97548.00;;;;8376574;28;20274;-69
2022/01/22 18:30:54;;;;;;;48.53;12.37;;;;;4.40;97554.00;;;;8388157;28;20215;-69
2022/01/22 18:35:31;;;;;;;55.10;13.90;;;;;4.40;97549.00;;;;8398058;28;20214;-69
2022/01/22 18:40:11;;;;;;;361.83;140.50;;;;;4.50;97562.00;;;;8397216;28;20305;-69
2022/01/22 18:49:40;;;;;;;75.37;18.33;;;;;4.50;97567.00;;;;8393593;28;20215;-71
2022/01/22 18:54:18;;;;;;;211.17;62.47;;;;;4.50;97557.00;;;;8394333;28;20231;-70
2022/01/22 18:58:53;;;;;;;301.90;100.80;;;;;4.60;97573.00;;;;8395856;28;20285;-70
2022/01/22 19:03:27;;;;;;;135.83;37.60;;;;;4.60;97565.00;;;;8395092;28;20554;-71
2022/01/22 19:08:04;;;;;;;106.37;30.80;;;;;4.60;97569.00;;;;8396051;28;20211;-70
2022/01/22 19:12:42;;;;;;;79.57;20.33;;;;;4.60;97574.00;;;;8396171;28;20211;-70
2022/01/22 19:17:16;;;;;;;69.03;15.70;;;;;4.60;97575.00;;;;8396477;28;20557;-69
2022/01/22 19:21:24;;;;;;;93.87;27.83;;;;;4.60;97584.00;;;;8395446;28;20227;-70
2022/01/22 19:26:13;;;;;;;88.33;21.30;;;;;4.60;97585.00;;;;8396359;28;20296;-70
2022/01/22 19:30:38;;;;;;;61.30;16.70;;;;;4.70;97581.00;;;;8392862;28;20273;-71
2022/01/22 19:35:09;;;;;;;73.83;16.77;;;;;4.60;97593.00;;;;8396678;28;20220;-71
2022/01/22 19:39:46;;;;;;;64.03;14.63;;;;;4.70;97590.00;;;;8396417;28;20281;-71
2022/01/22 19:43:54;;;;;;;85.03;19.10;;;;;4.70;97587.00;;;;8382273;28;20219;-71
2022/01/22 19:48:26;;;;;;;96.80;21.10;;;;;4.80;97600.00;;;;8396545;28;20220;-71
2022/01/22 19:53:01;;;;;;;93.30;18.20;;;;;4.70;97604.00;;;;8394153;28;20219;-72
2022/01/22 19:57:36;;;;;;;90.80;24.53;;;;;4.70;97597.00;;;;8394519;28;20536;-73
2022/01/22 20:02:14;;;;;;;61.97;13.87;;;;;4.70;97594.00;;;;8393289;28;20671;-73
2022/01/22 20:06:49;;;;;;;96.60;18.33;;;;;4.70;97598.00;;;;8394186;28;20221;-72
2022/01/22 20:11:23;;;;;;;59.43;12.50;;;;;4.60;97595.00;;;;8391720;28;20272;-73
2022/01/22 20:15:32;;;;;;;85.07;17.57;;;;;4.70;97594.00;;;;8372889;28;20636;-73
2022/01/22 20:19:35;;;;;;;75.03;15.43;;;;;4.70;97596.00;;;;8394581;28;20216;-73
2022/01/22 20:23:59;;;;;;;81.37;17.20;;;;;4.60;97595.00;;;;8394080;28;20633;-74
2022/01/22 20:28:33;;;;;;;70.63;15.03;;;;;4.60;97599.00;;;;8395807;28;20212;-74
2022/01/22 20:33:10;;;;;;;96.83;17.27;;;;;4.60;97603.00;;;;8394711;28;20227;-74
2022/01/22 20:37:47;;;;;;;88.30;16.33;;;;;4.60;97614.00;;;;8393976;28;20222;-73
2022/01/22 20:42:25;;;;;;;84.50;17.30;;;;;4.60;97612.00;;;;8394365;28;20238;-74
2022/01/22 20:52:20;;;;;;;105.33;19.07;;;;;4.70;97618.00;;;;8393462;28;20272;-75
2022/01/22 20:56:58;;;;;;;100.17;20.40;;;;;4.70;97622.00;;;;8386327;28;20332;-75
2022/01/22 21:01:33;;;;;;;106.47;19.30;;;;;4.70;97625.00;;;;8394447;28;20270;-73
2022/01/22 21:06:08;;;;;;;105.40;18.93;;;;;4.70;97613.00;;;;8393967;28;20234;-74
2022/01/22 21:10:45;;;;;;;77.23;15.90;;;;;4.70;97622.00;;;;8393223;28;20653;-73
2022/01/22 21:15:22;;;;;;;89.07;17.93;;;;;4.70;97626.00;;;;8392178;28;20235;-74
2022/01/22 21:20:00;;;;;;;65.57;14.77;;;;;4.70;97620.00;;;;8393111;28;20224;-74
2022/01/22 21:24:34;;;;;;;94.23;18.53;;;;;4.60;97628.00;;;;8392454;28;20235;-74
2022/01/22 21:29:11;;;;;;;88.17;16.67;;;;;4.60;97630.00;;;;8393568;28;20222;-74
2022/01/22 21:33:20;;;;;;;110.47;21.40;;;;;4.60;97629.00;;;;8393664;28;20235;-74
2022/01/22 21:38:14;;;;;;;91.40;19.17;;;;;4.60;97628.00;;;;8392641;28;20306;-73
2022/01/22 21:43:24;;;;;;;79.83;15.30;;;;;4.50;97631.00;;;;8391104;28;20229;-73
2022/01/22 21:47:27;;;;;;;87.77;17.50;;;;;4.50;97618.00;;;;8393786;28;20223;-72
2022/01/22 21:51:30;;;;;;;91.43;17.57;;;;;4.50;97619.00;;;;8391712;28;20576;-72
2022/01/22 21:56:09;;;;;;;88.80;17.83;;;;;4.50;97611.00;;;;8393655;28;20267;-72
2022/01/22 22:00:46;;;;;;;111.03;19.50;;;;;4.50;97614.00;;;;8393017;28;20212;-71
2022/01/22 22:04:50;;;;;;;83.73;17.20;;;;;4.50;97619.00;;;;8398314;28;20226;-72
2022/01/22 22:09:27;;;;;;;88.90;16.33;;;;;4.50;97617.00;;;;8399894;28;20272;-71
2022/01/22 22:14:06;;;;;;;84.50;16.27;;;;;4.50;97598.00;;;;8398554;28;20228;-72
2022/01/22 22:18:43;;;;;;;50.67;12.77;;;;;4.50;97593.00;;;;8390332;28;20216;-72
2022/01/22 22:23:13;;;;;;;65.10;13.67;;;;;4.40;97589.00;;;;8398656;28;20215;-72
2022/01/22 22:27:16;;;;;;;58.17;12.03;;;;;4.40;97591.00;;;;8399579;28;20219;-72
2022/01/22 22:31:20;;;;;;;57.37;12.40;;;;;4.40;97593.00;;;;8397891;28;20230;-72
2022/01/22 22:35:24;;;;;;;59.20;12.60;;;;;4.50;97595.00;;;;8399825;28;20230;-72
2022/01/22 22:39:58;;;;;;;46.17;10.43;;;;;4.50;97599.00;;;;8398343;28;20211;-72
2022/01/22 22:44:01;;;;;;;48.13;10.03;;;;;4.50;97600.00;;;;8397570;28;20280;-73
2022/01/22 22:48:05;;;;;;;41.80;10.03;;;;;4.50;97600.00;;;;8398562;28;20640;-73
2022/01/22 22:52:43;;;;;;;41.63;10.13;;;;;4.40;97590.00;;;;8397501;28;20652;-73
2022/01/22 22:56:47;;;;;;;47.57;10.27;;;;;4.40;97601.00;;;;8388014;28;20224;-73